createdAt,value
2018-12-30T00:01:12.050Z,19.50
2018-12-30T00:03:40.592Z,19.70
2018-12-30T00:06:09.878Z,19.30
2018-12-30T00:08:38.822Z,19.90
2018-12-30T00:11:07.488Z,20.20
2018-12-30T00:13:36.054Z,20.20
2018-12-30T00:16:04.876Z,20.30
2018-12-30T00:18:33.498Z,20.40
2018-12-30T00:21:08.775Z,20.10
2018-12-30T00:23:32.288Z,19.90
2018-12-30T00:26:00.820Z,19.50
2018-12-30T00:28:29.334Z,19.30
2018-12-30T00:30:57.908Z,19.60
2018-12-30T00:33:26.586Z,20.00
2018-12-30T00:35:55.106Z,19.70
2018-12-30T00:38:23.677Z,19.80
2018-12-30T00:40:52.288Z,20.00
2018-12-30T00:43:20.867Z,19.80
2018-12-30T00:45:49.367Z,20.20
2018-12-30T00:48:18.088Z,20.00
2018-12-30T00:50:46.716Z,20.40
2018-12-30T00:53:15.349Z,20.50
2018-12-30T00:55:44.080Z,20.20
2018-12-30T00:58:12.697Z,20.40
2018-12-30T01:00:41.191Z,19.90
2018-12-30T01:03:10.180Z,20.10
2018-12-30T01:05:38.776Z,19.50
2018-12-30T01:08:07.255Z,19.40
2018-12-30T01:10:35.869Z,20.30
2018-12-30T01:13:04.495Z,20.80
2018-12-30T01:15:33.055Z,21.40
2018-12-30T01:18:01.671Z,21.80
2018-12-30T01:20:30.309Z,22.20
2018-12-30T01:22:58.940Z,21.80
2018-12-30T01:25:27.476Z,22.20
2018-12-30T01:27:56.171Z,22.90
2018-12-30T01:30:25.313Z,22.90
2018-12-30T01:32:54.014Z,22.60
2018-12-30T01:35:22.583Z,22.40
2018-12-30T01:37:51.219Z,21.70
2018-12-30T01:40:19.894Z,22.60
2018-12-30T01:42:48.455Z,22.80
2018-12-30T01:45:17.011Z,21.90
2018-12-30T01:47:45.951Z,21.90
2018-12-30T01:50:14.592Z,22.00
2018-12-30T01:52:43.165Z,22.20
2018-12-30T01:55:12.030Z,21.20
2018-12-30T01:57:40.936Z,21.10
2018-12-30T02:00:09.499Z,21.30
2018-12-30T02:02:38.133Z,20.70
2018-12-30T02:05:06.688Z,20.20
2018-12-30T02:07:35.313Z,19.50
2018-12-30T02:10:05.803Z,19.30
2018-12-30T02:12:34.467Z,19.60
2018-12-30T02:15:02.963Z,19.70
2018-12-30T02:17:31.656Z,19.40
2018-12-30T02:20:00.254Z,20.30
2018-12-30T02:22:29.282Z,20.90
2018-12-30T02:24:58.198Z,20.90
2018-12-30T02:27:27.269Z,20.90
2018-12-30T02:29:55.844Z,21.70
2018-12-30T02:32:24.373Z,21.80
2018-12-30T02:34:53.616Z,21.50
2018-12-30T02:37:22.439Z,21.30
2018-12-30T02:39:51.101Z,21.30
2018-12-30T02:42:19.728Z,20.60
2018-12-30T02:44:48.290Z,21.20
2018-12-30T02:47:16.986Z,21.00
2018-12-30T02:49:45.544Z,20.80
2018-12-30T02:52:14.175Z,20.50
2018-12-30T02:54:42.873Z,20.60
2018-12-30T02:57:11.885Z,20.60
2018-12-30T02:59:40.584Z,20.40
2018-12-30T03:02:09.255Z,21.10
2018-12-30T03:04:37.886Z,21.40
2018-12-30T03:07:06.517Z,22.40
2018-12-30T03:09:35.104Z,21.60
2018-12-30T03:12:04.118Z,21.00
2018-12-30T03:14:32.615Z,20.60
2018-12-30T03:17:01.296Z,20.50
2018-12-30T03:19:29.933Z,20.40
2018-12-30T03:21:59.306Z,20.90
2018-12-30T03:24:28.846Z,21.10
2018-12-30T03:26:57.482Z,21.70
2018-12-30T03:29:26.042Z,22.00
2018-12-30T03:31:54.978Z,22.00
2018-12-30T03:34:23.533Z,22.60
2018-12-30T03:36:52.170Z,22.20
2018-12-30T03:39:20.778Z,21.90
2018-12-30T03:41:49.294Z,21.60
2018-12-30T03:44:18.297Z,22.50
2018-12-30T03:46:46.895Z,22.10
2018-12-30T03:49:15.488Z,22.50
2018-12-30T03:51:44.060Z,23.30
2018-12-30T03:54:12.692Z,23.60
2018-12-30T03:56:41.320Z,23.20
2018-12-30T03:59:09.811Z,23.00
2018-12-30T04:01:38.487Z,23.40
2018-12-30T04:04:07.002Z,22.50
2018-12-30T04:06:35.654Z,21.50
2018-12-30T04:09:06.232Z,21.50
2018-12-30T04:11:34.867Z,21.60
2018-12-30T04:14:03.884Z,21.30
2018-12-30T04:16:32.902Z,22.60
2018-12-30T04:19:01.508Z,22.80
2018-12-30T04:21:30.136Z,22.50
2018-12-30T04:23:58.818Z,21.90
2018-12-30T04:26:27.398Z,21.90
2018-12-30T04:28:56.086Z,21.90
2018-12-30T04:31:25.109Z,22.30
2018-12-30T04:33:53.908Z,21.50
2018-12-30T04:36:22.651Z,22.40
2018-12-30T04:38:51.264Z,21.90
2018-12-30T04:41:19.940Z,21.50
2018-12-30T04:43:48.680Z,21.30
2018-12-30T04:46:17.876Z,20.70
2018-12-30T04:48:46.635Z,20.70
2018-12-30T04:51:15.386Z,20.70
2018-12-30T04:53:44.266Z,21.00
2018-12-30T04:56:13.295Z,21.00
2018-12-30T04:58:41.929Z,21.90
2018-12-30T05:01:10.531Z,21.90
2018-12-30T05:03:39.162Z,21.90
2018-12-30T05:06:07.934Z,21.50
2018-12-30T05:08:36.532Z,21.70
2018-12-30T05:11:05.220Z,21.30
2018-12-30T05:13:33.842Z,21.30
2018-12-30T05:16:02.520Z,20.60
2018-12-30T05:18:31.007Z,20.60
2018-12-30T05:20:59.507Z,21.10
2018-12-30T05:23:28.921Z,21.20
2018-12-30T05:25:57.564Z,21.30
2018-12-30T05:28:26.199Z,21.30
2018-12-30T05:30:54.730Z,20.90
2018-12-30T05:33:23.215Z,21.30
2018-12-30T05:35:51.787Z,21.50
2018-12-30T05:38:20.622Z,21.40
2018-12-30T05:40:49.129Z,21.70
2018-12-30T05:43:17.690Z,21.90
2018-12-30T05:45:46.378Z,21.50
2018-12-30T05:48:14.955Z,21.00
2018-12-30T05:50:43.737Z,21.30
2018-12-30T05:53:12.761Z,22.20
2018-12-30T05:55:41.849Z,22.30
2018-12-30T05:58:10.434Z,22.80
2018-12-30T06:00:39.465Z,24.30
2018-12-30T06:03:08.871Z,23.70
2018-12-30T06:05:37.513Z,23.30
2018-12-30T06:08:06.355Z,22.90
2018-12-30T06:10:34.915Z,23.00
2018-12-30T06:13:03.658Z,23.20
2018-12-30T06:15:32.360Z,23.90
2018-12-30T06:18:00.932Z,23.70
2018-12-30T06:20:29.565Z,23.40
2018-12-30T06:22:58.244Z,22.90
2018-12-30T06:25:26.808Z,22.40
2018-12-30T06:27:55.442Z,22.60
2018-12-30T06:30:24.188Z,22.60
2018-12-30T06:32:52.823Z,21.80
2018-12-30T06:35:21.392Z,21.80
2018-12-30T06:37:50.285Z,22.40
2018-12-30T06:40:18.919Z,22.80
2018-12-30T06:42:47.550Z,23.70
2018-12-30T06:45:16.163Z,24.50
2018-12-30T06:47:44.794Z,24.30
2018-12-30T06:50:13.350Z,24.70
2018-12-30T06:52:41.908Z,24.00
2018-12-30T06:55:10.878Z,23.60
2018-12-30T06:57:39.435Z,23.60
2018-12-30T07:00:08.049Z,23.70
2018-12-30T07:02:36.687Z,24.30
2018-12-30T07:05:06.667Z,24.10
2018-12-30T07:07:35.350Z,24.30
2018-12-30T07:10:03.914Z,24.90
2018-12-30T07:12:32.396Z,24.30
2018-12-30T07:15:00.995Z,23.80
2018-12-30T07:17:29.583Z,24.30
2018-12-30T07:19:58.220Z,23.90
2018-12-30T07:22:26.769Z,23.70
2018-12-30T07:24:55.396Z,24.20
2018-12-30T07:27:23.878Z,25.20
2018-12-30T07:29:52.551Z,25.80
2018-12-30T07:32:21.030Z,25.80
2018-12-30T07:34:49.606Z,25.40
2018-12-30T07:37:18.220Z,24.70
2018-12-30T07:39:46.702Z,24.40
2018-12-30T07:42:15.335Z,24.60
2018-12-30T07:44:44.011Z,25.40
2018-12-30T07:47:13.131Z,25.10
2018-12-30T07:49:41.766Z,24.60
2018-12-30T07:52:10.431Z,24.20
2018-12-30T07:54:38.926Z,23.80
2018-12-30T07:57:07.558Z,24.00
2018-12-30T07:59:36.173Z,23.40
2018-12-30T08:02:04.714Z,23.30
2018-12-30T08:04:33.342Z,23.60
2018-12-30T08:07:01.957Z,24.10
2018-12-30T08:09:30.527Z,23.40
2018-12-30T08:11:59.090Z,23.40
2018-12-30T08:14:28.102Z,22.40
2018-12-30T08:16:56.671Z,22.30
2018-12-30T08:19:25.254Z,22.70
2018-12-30T08:21:53.838Z,22.20
2018-12-30T08:24:22.492Z,22.30
2018-12-30T08:26:50.926Z,22.10
2018-12-30T08:29:19.462Z,22.10
2018-12-30T08:31:48.642Z,22.40
2018-12-30T08:34:17.286Z,22.60
2018-12-30T08:36:45.972Z,22.90
2018-12-30T08:39:14.530Z,23.50
2018-12-30T08:41:45.196Z,23.60
2018-12-30T08:44:14.449Z,23.00
2018-12-30T08:46:43.096Z,23.20
2018-12-30T08:49:11.737Z,23.30
2018-12-30T08:51:40.354Z,22.80
2018-12-30T08:54:09.002Z,23.20
2018-12-30T08:56:37.613Z,22.60
2018-12-30T08:59:06.224Z,22.40
2018-12-30T09:01:34.818Z,22.00
2018-12-30T09:04:03.458Z,22.60
2018-12-30T09:06:32.032Z,22.10
2018-12-30T09:09:00.528Z,22.50
2018-12-30T09:11:29.095Z,22.30
2018-12-30T09:13:57.725Z,23.40
2018-12-30T09:16:26.361Z,23.00
2018-12-30T09:18:54.940Z,22.80
2018-12-30T09:21:23.520Z,22.90
2018-12-30T09:23:52.146Z,22.50
2018-12-30T09:26:20.776Z,23.20
2018-12-30T09:28:49.330Z,24.70
2018-12-30T09:31:17.819Z,24.50
2018-12-30T09:33:46.971Z,23.90
2018-12-30T09:36:18.366Z,24.80
2018-12-30T09:38:46.859Z,26.00
2018-12-30T09:41:15.423Z,26.10
2018-12-30T09:43:44.712Z,24.90
2018-12-30T09:46:13.281Z,24.60
2018-12-30T09:48:42.035Z,24.70
2018-12-30T09:51:10.668Z,25.70
2018-12-30T09:53:45.101Z,25.40
2018-12-30T09:56:09.496Z,25.40
2018-12-30T09:58:38.472Z,25.90
2018-12-30T10:01:06.958Z,25.30
2018-12-30T10:03:35.452Z,25.50
2018-12-30T10:06:04.143Z,25.80
2018-12-30T10:08:32.777Z,26.70
2018-12-30T10:11:01.469Z,26.70
2018-12-30T10:13:30.107Z,26.90
2018-12-30T10:15:58.724Z,26.40
2018-12-30T10:18:27.288Z,25.70
2018-12-30T10:20:55.947Z,25.60
2018-12-30T10:23:24.520Z,25.20
2018-12-30T10:25:53.079Z,23.60
2018-12-30T10:28:21.690Z,23.20
2018-12-30T10:30:50.241Z,22.40
2018-12-30T10:33:18.862Z,22.90
2018-12-30T10:35:47.423Z,20.80
2018-12-30T10:38:15.933Z,21.50
2018-12-30T10:40:44.576Z,20.80
2018-12-30T10:43:13.184Z,20.50
2018-12-30T10:45:41.682Z,20.10
2018-12-30T10:48:10.203Z,20.30
2018-12-30T10:50:38.880Z,19.20
2018-12-30T10:53:07.462Z,19.90
2018-12-30T10:55:36.053Z,19.60
2018-12-30T10:58:04.713Z,19.60
2018-12-30T11:00:33.311Z,19.70
2018-12-30T11:03:01.881Z,18.80
2018-12-30T11:05:30.421Z,18.40
2018-12-30T11:07:58.990Z,17.50
2018-12-30T11:10:27.636Z,17.40
2018-12-30T11:12:56.240Z,17.80
2018-12-30T11:15:24.811Z,17.50
2018-12-30T11:17:54.968Z,16.90
2018-12-30T11:20:23.581Z,17.00
2018-12-30T11:22:52.082Z,16.70
2018-12-30T11:25:20.722Z,17.10
2018-12-30T11:27:49.336Z,16.20
2018-12-30T11:30:17.907Z,15.90
2018-12-30T11:32:46.942Z,16.20
2018-12-30T11:35:15.614Z,16.80
2018-12-30T11:37:44.183Z,16.80
2018-12-30T11:40:12.827Z,17.20
2018-12-30T11:42:41.500Z,18.30
2018-12-30T11:45:10.341Z,17.50
2018-12-30T11:47:38.921Z,16.90
2018-12-30T11:50:09.212Z,16.80
2018-12-30T11:52:37.778Z,16.60
2018-12-30T11:55:07.982Z,16.30
2018-12-30T11:57:36.660Z,16.70
2018-12-30T12:00:08.274Z,16.80
2018-12-30T12:02:36.859Z,16.00
2018-12-30T12:05:05.741Z,16.10
2018-12-30T12:07:34.319Z,15.80
2018-12-30T12:10:02.980Z,15.50
2018-12-30T12:12:31.691Z,15.00
2018-12-30T12:15:00.329Z,14.90
2018-12-30T12:17:28.975Z,15.10
2018-12-30T12:19:57.681Z,15.70
2018-12-30T12:22:26.339Z,15.70
2018-12-30T12:24:54.974Z,16.10
2018-12-30T12:27:23.867Z,16.70
2018-12-30T12:29:52.500Z,16.00
2018-12-30T12:32:21.141Z,15.90
2018-12-30T12:39:46.424Z,16.10
2018-12-30T12:42:15.364Z,15.40
2018-12-30T12:47:12.907Z,15.60
2018-12-30T12:49:41.615Z,15.00
2018-12-30T12:52:10.416Z,15.10
2018-12-30T12:54:39.059Z,15.10
2018-12-30T12:57:07.682Z,15.50
2018-12-30T12:59:36.253Z,15.70
2018-12-30T13:02:04.816Z,16.40
2018-12-30T13:04:33.440Z,15.90
2018-12-30T13:07:01.951Z,16.30
2018-12-30T13:09:30.550Z,16.20
2018-12-30T13:11:59.074Z,16.90
2018-12-30T13:14:27.637Z,16.90
2018-12-30T13:16:56.292Z,16.90
2018-12-30T13:19:24.905Z,16.80
2018-12-30T13:21:53.582Z,16.50
2018-12-30T13:24:22.147Z,16.70
2018-12-30T13:26:50.826Z,16.80
2018-12-30T13:29:19.484Z,16.70
2018-12-30T13:31:50.802Z,16.70
2018-12-30T13:34:19.411Z,16.70
2018-12-30T13:36:47.894Z,17.30
2018-12-30T13:39:16.473Z,17.40
2018-12-30T13:41:45.151Z,16.80
2018-12-30T13:44:13.728Z,16.40
2018-12-30T13:46:42.290Z,16.30
2018-12-30T13:49:10.961Z,16.40
2018-12-30T13:51:39.610Z,15.80
2018-12-30T13:54:08.267Z,16.30
2018-12-30T13:56:36.938Z,16.50
2018-12-30T13:59:05.447Z,16.80
2018-12-30T14:01:34.946Z,16.10
2018-12-30T14:04:03.652Z,15.90
2018-12-30T14:06:32.243Z,15.70
2018-12-30T14:09:00.813Z,16.40
2018-12-30T14:11:29.500Z,16.70
2018-12-30T14:13:58.141Z,16.80
2018-12-30T14:16:26.772Z,16.80
2018-12-30T14:18:55.461Z,17.20
2018-12-30T14:21:24.098Z,17.30
2018-12-30T14:23:52.675Z,17.30
2018-12-30T14:26:22.629Z,17.70
2018-12-30T14:28:51.266Z,18.50
2018-12-30T14:31:19.918Z,19.50
2018-12-30T14:33:48.583Z,18.20
2018-12-30T14:36:17.221Z,18.30
2018-12-30T14:38:45.858Z,17.50
2018-12-30T14:41:14.557Z,17.90
2018-12-30T14:43:43.183Z,17.60
2018-12-30T14:46:11.738Z,16.40
2018-12-30T14:48:40.413Z,17.00
2018-12-30T14:51:08.980Z,16.90
2018-12-30T14:53:37.637Z,16.90
2018-12-30T14:56:06.656Z,16.70
2018-12-30T14:58:35.279Z,17.20
2018-12-30T15:01:03.917Z,17.50
2018-12-30T15:03:34.176Z,17.60
2018-12-30T15:06:02.793Z,17.90
2018-12-30T15:08:31.446Z,18.30
2018-12-30T15:11:00.137Z,17.60
2018-12-30T15:13:28.752Z,17.30
2018-12-30T15:15:57.405Z,16.80
2018-12-30T15:18:26.139Z,17.60
2018-12-30T15:20:54.739Z,17.40
2018-12-30T15:23:23.290Z,17.00
2018-12-30T15:25:51.985Z,17.40
2018-12-30T15:28:20.623Z,17.60
2018-12-30T15:30:49.259Z,17.10
2018-12-30T15:33:17.930Z,16.90
2018-12-30T15:35:46.585Z,16.70
2018-12-30T15:38:15.245Z,16.90
2018-12-30T15:40:45.490Z,17.10
2018-12-30T15:43:15.415Z,16.60
2018-12-30T15:45:44.731Z,17.00
2018-12-30T15:48:13.696Z,17.80
2018-12-30T15:50:42.318Z,17.40
2018-12-30T15:53:11.335Z,16.70
2018-12-30T15:55:40.053Z,16.90
2018-12-30T15:58:08.687Z,17.00
2018-12-30T16:00:37.258Z,16.70
2018-12-30T16:03:05.926Z,16.70
2018-12-30T16:05:34.563Z,16.60
2018-12-30T16:08:03.052Z,16.40
2018-12-30T16:10:31.741Z,16.50
2018-12-30T16:13:00.369Z,16.60
2018-12-30T16:15:28.929Z,15.80
2018-12-30T16:17:58.059Z,16.50
2018-12-30T16:20:26.692Z,16.70
2018-12-30T16:22:55.256Z,17.20
2018-12-30T16:25:27.353Z,16.80
2018-12-30T16:27:54.244Z,16.50
2018-12-30T16:30:22.908Z,17.40
2018-12-30T16:32:51.933Z,16.70
2018-12-30T16:35:20.547Z,17.10
2018-12-30T16:37:49.556Z,17.10
2018-12-30T16:40:18.369Z,17.40
2018-12-30T16:42:50.003Z,17.50
2018-12-30T16:45:18.571Z,16.90
2018-12-30T16:47:47.592Z,17.60
2018-12-30T16:50:16.163Z,18.50
2018-12-30T16:52:44.723Z,18.20
2018-12-30T16:55:13.362Z,18.50
2018-12-30T16:57:41.828Z,18.70
2018-12-30T17:00:10.472Z,18.90
2018-12-30T17:02:38.989Z,17.80
2018-12-30T17:05:09.190Z,18.20
2018-12-30T17:07:37.769Z,18.10
2018-12-30T17:10:11.675Z,18.40
2018-12-30T17:12:40.271Z,18.60
2018-12-30T17:15:09.125Z,18.60
2018-12-30T17:17:37.785Z,18.40
2018-12-30T17:20:07.055Z,18.10
2018-12-30T17:22:35.701Z,17.70
2018-12-30T17:25:04.892Z,17.00
2018-12-30T17:27:33.482Z,17.20
2018-12-30T17:30:02.277Z,18.00
2018-12-30T17:32:30.990Z,16.80
2018-12-30T17:34:59.638Z,17.60
2018-12-30T17:37:28.201Z,17.50
2018-12-30T17:39:57.481Z,18.10
2018-12-30T17:42:26.077Z,17.80
2018-12-30T17:44:55.020Z,17.70
2018-12-30T17:47:23.956Z,17.90
2018-12-30T17:49:52.601Z,17.60
2018-12-30T17:52:21.221Z,17.30
2018-12-30T17:54:49.834Z,17.30
2018-12-30T17:57:18.463Z,17.60
2018-12-30T17:59:47.033Z,18.30
2018-12-30T18:02:15.638Z,18.50
2018-12-30T18:04:44.290Z,17.80
2018-12-30T18:07:12.846Z,17.50
2018-12-30T18:09:41.490Z,16.90
2018-12-30T18:12:10.058Z,17.90
2018-12-30T18:14:38.710Z,17.70
2018-12-30T18:17:07.392Z,17.70
2018-12-30T18:19:36.060Z,17.20
2018-12-30T18:22:04.621Z,17.00
2018-12-30T18:24:33.291Z,16.60
2018-12-30T18:27:01.833Z,16.60
2018-12-30T18:29:30.401Z,16.90
2018-12-30T18:31:59.352Z,17.80
2018-12-30T18:36:56.317Z,17.00
2018-12-30T18:39:25.481Z,16.70
2018-12-30T18:41:54.133Z,16.80
2018-12-30T18:44:22.768Z,16.70
2018-12-30T18:46:51.468Z,17.30
2018-12-30T18:49:20.118Z,17.50
2018-12-30T18:51:48.756Z,17.40
2018-12-30T18:54:17.409Z,16.60
2018-12-30T18:56:46.050Z,17.50
2018-12-30T18:59:14.714Z,17.30
2018-12-30T19:01:43.436Z,17.70
2018-12-30T19:04:12.070Z,17.60
2018-12-30T19:06:40.740Z,17.80
2018-12-30T19:09:10.411Z,18.30
2018-12-30T19:11:39.034Z,18.60
2018-12-30T19:14:09.031Z,18.90
2018-12-30T19:16:37.719Z,19.30
2018-12-30T19:19:06.350Z,18.50
2018-12-30T19:21:34.991Z,18.70
2018-12-30T19:24:03.692Z,18.40
2018-12-30T19:26:32.313Z,17.40
2018-12-30T19:29:00.953Z,17.30
2018-12-30T19:31:30.485Z,17.10
2018-12-30T19:33:59.144Z,17.20
2018-12-30T19:36:27.815Z,18.00
2018-12-30T19:38:56.855Z,17.60
2018-12-30T19:41:25.497Z,17.10
2018-12-30T19:43:54.135Z,16.80
2018-12-30T19:46:22.739Z,16.90
2018-12-30T19:48:51.329Z,17.00
2018-12-30T19:51:20.307Z,16.80
2018-12-30T19:53:49.004Z,17.20
2018-12-30T19:56:21.931Z,18.00
2018-12-30T19:58:47.943Z,18.10
2018-12-30T20:01:16.627Z,18.40
2018-12-30T20:03:45.289Z,18.70
2018-12-30T20:06:13.855Z,18.30
2018-12-30T20:08:42.571Z,18.10
2018-12-30T20:11:11.196Z,17.80
2018-12-30T20:13:39.870Z,17.90
2018-12-30T20:16:08.549Z,17.80
2018-12-30T20:18:37.134Z,17.70
2018-12-30T20:21:05.773Z,17.80
2018-12-30T20:23:35.433Z,17.00
2018-12-30T20:26:04.072Z,16.90
2018-12-30T20:28:33.625Z,17.60
2018-12-30T20:31:02.306Z,17.40
2018-12-30T20:33:31.593Z,17.30
2018-12-30T20:36:02.072Z,16.60
2018-12-30T20:38:31.160Z,16.60
2018-12-30T20:40:59.813Z,17.20
2018-12-30T20:43:28.446Z,17.10
2018-12-30T20:45:57.136Z,17.10
2018-12-30T20:48:25.709Z,16.90
2018-12-30T20:50:54.354Z,17.00
2018-12-30T20:53:24.647Z,17.50
2018-12-30T20:55:53.212Z,16.40
2018-12-30T20:58:21.772Z,16.30
2018-12-30T21:00:50.465Z,16.50
2018-12-30T21:03:19.481Z,17.10
2018-12-30T21:05:48.110Z,17.70
2018-12-30T21:08:16.788Z,18.50
2018-12-30T21:10:47.003Z,18.60
2018-12-30T21:13:16.064Z,18.10
2018-12-30T21:15:44.753Z,17.90
2018-12-30T21:18:14.893Z,18.80
2018-12-30T21:20:43.546Z,18.60
2018-12-30T21:23:12.242Z,18.90
2018-12-30T21:25:41.259Z,19.20
2018-12-30T21:28:09.919Z,18.70
2018-12-30T21:30:38.598Z,18.70
2018-12-30T21:33:07.157Z,19.20
2018-12-30T21:35:35.818Z,19.70
2018-12-30T21:38:04.514Z,19.00
2018-12-30T21:40:33.156Z,18.30
2018-12-30T21:43:01.810Z,18.50
2018-12-30T21:45:30.492Z,18.30
2018-12-30T21:47:59.143Z,17.80
2018-12-30T21:50:27.726Z,18.30
2018-12-30T21:52:56.406Z,17.70
2018-12-30T21:55:25.485Z,18.00
2018-12-30T21:57:54.132Z,18.70
2018-12-30T22:00:22.803Z,18.20
2018-12-30T22:02:51.396Z,18.50
2018-12-30T22:05:20.019Z,17.70
2018-12-30T22:07:48.725Z,17.40
2018-12-30T22:10:17.692Z,17.50
2018-12-30T22:12:47.293Z,17.80
2018-12-30T22:15:16.298Z,17.10
2018-12-30T22:17:44.872Z,17.60
2018-12-30T22:20:13.522Z,17.60
2018-12-30T22:22:42.223Z,18.10
2018-12-30T22:25:10.805Z,17.10
2018-12-30T22:27:39.457Z,17.30
2018-12-30T22:30:08.066Z,17.20
2018-12-30T22:32:36.650Z,17.00
2018-12-30T22:35:06.195Z,17.50
2018-12-30T22:37:34.866Z,17.20
2018-12-30T22:40:04.342Z,16.60
2018-12-30T22:42:33.190Z,16.80
2018-12-30T22:45:01.878Z,16.90
2018-12-30T22:47:30.512Z,16.60
2018-12-30T22:49:59.163Z,16.80
2018-12-30T22:52:28.360Z,17.10
2018-12-30T22:54:56.950Z,16.90
2018-12-30T22:57:25.508Z,17.20
2018-12-30T22:59:54.046Z,17.30
2018-12-30T23:02:22.685Z,16.90
2018-12-30T23:04:51.519Z,17.20
2018-12-30T23:07:20.212Z,17.40
2018-12-30T23:09:48.853Z,17.90
2018-12-30T23:12:17.511Z,18.10
2018-12-30T23:14:46.059Z,17.90
2018-12-30T23:17:14.643Z,18.00
2018-12-30T23:19:43.217Z,17.80
2018-12-30T23:22:11.819Z,18.60
2018-12-30T23:24:40.811Z,18.70
2018-12-30T23:27:09.388Z,18.30
2018-12-30T23:29:38.014Z,18.40
2018-12-30T23:32:06.644Z,18.30
2018-12-30T23:34:35.209Z,17.80
2018-12-30T23:37:03.899Z,17.70
2018-12-30T23:39:32.473Z,17.50
2018-12-30T23:42:01.041Z,17.30
2018-12-30T23:44:29.908Z,17.10
2018-12-30T23:46:58.467Z,17.00
2018-12-30T23:49:27.040Z,16.90
2018-12-30T23:51:55.659Z,16.50
2018-12-30T23:54:24.225Z,16.70
2018-12-30T23:56:52.733Z,17.00
2018-12-30T23:59:21.347Z,17.00
